sensor_id;sensor_type;location;lat;lon;timestamp;P1;durP1;ratioP1;P2;durP2;ratioP2
66667;SDS011;57205;51.438;-2.006;2023-06-14T00:00:19;7.47;;;5.28;;
66667;SDS011;57205;51.438;-2.006;2023-06-14T00:02:45;7.65;;;5.03;;
66667;SDS011;57205;51.438;-2.006;2023-06-14T00:05:11;7.82;;;5.38;;
66667;SDS011;57205;51.438;-2.006;2023-06-14T00:07:40;7.18;;;4.82;;
66667;SDS011;57205;51.438;-2.006;2023-06-14T00:10:10;8.10;;;5.43;;
66667;SDS011;57205;51.438;-2.006;2023-06-14T00:12:36;8.77;;;5.25;;
66667;SDS011;57205;51.438;-2.006;2023-06-14T00:15:02;7.10;;;4.80;;
66667;SDS011;57205;51.438;-2.006;2023-06-14T00:17:28;11.02;;;5.15;;
66667;SDS011;57205;51.438;-2.006;2023-06-14T00:19:55;7.88;;;5.43;;
66667;SDS011;57205;51.438;-2.006;2023-06-14T00:22:22;8.52;;;5.43;;
66667;SDS011;57205;51.438;-2.006;2023-06-14T00:24:49;7.47;;;5.63;;
66667;SDS011;57205;51.438;-2.006;2023-06-14T00:27:15;7.35;;;5.00;;
66667;SDS011;57205;51.438;-2.006;2023-06-14T00:29:41;7.30;;;5.22;;
66667;SDS011;57205;51.438;-2.006;2023-06-14T00:32:06;8.18;;;5.22;;
66667;SDS011;57205;51.438;-2.006;2023-06-14T00:34:32;8.10;;;5.28;;
66667;SDS011;57205;51.438;-2.006;2023-06-14T00:36:58;7.63;;;5.50;;
66667;SDS011;57205;51.438;-2.006;2023-06-14T00:39:24;7.38;;;4.70;;
66667;SDS011;57205;51.438;-2.006;2023-06-14T00:41:49;6.95;;;4.97;;
66667;SDS011;57205;51.438;-2.006;2023-06-14T00:44:15;5.82;;;5.13;;
66667;SDS011;57205;51.438;-2.006;2023-06-14T00:46:42;6.68;;;4.82;;
66667;SDS011;57205;51.438;-2.006;2023-06-14T00:49:07;7.15;;;5.82;;
66667;SDS011;57205;51.438;-2.006;2023-06-14T00:51:33;8.10;;;5.45;;
66667;SDS011;57205;51.438;-2.006;2023-06-14T00:53:59;7.95;;;5.18;;
66667;SDS011;57205;51.438;-2.006;2023-06-14T00:56:24;9.23;;;5.03;;
66667;SDS011;57205;51.438;-2.006;2023-06-14T00:58:50;9.68;;;5.60;;
66667;SDS011;57205;51.438;-2.006;2023-06-14T01:01:16;8.05;;;5.32;;
66667;SDS011;57205;51.438;-2.006;2023-06-14T01:03:41;7.00;;;5.40;;
66667;SDS011;57205;51.438;-2.006;2023-06-14T01:11:41;7.57;;;5.40;;
66667;SDS011;57205;51.438;-2.006;2023-06-14T01:14:19;8.43;;;5.65;;
66667;SDS011;57205;51.438;-2.006;2023-06-14T01:16:46;10.23;;;6.38;;
66667;SDS011;57205;51.438;-2.006;2023-06-14T01:19:12;9.43;;;5.63;;
66667;SDS011;57205;51.438;-2.006;2023-06-14T01:21:40;7.63;;;5.00;;
66667;SDS011;57205;51.438;-2.006;2023-06-14T01:24:07;10.05;;;5.75;;
66667;SDS011;57205;51.438;-2.006;2023-06-14T01:26:34;9.05;;;5.30;;
66667;SDS011;57205;51.438;-2.006;2023-06-14T01:29:02;10.23;;;5.43;;
66667;SDS011;57205;51.438;-2.006;2023-06-14T01:31:29;8.00;;;5.55;;
66667;SDS011;57205;51.438;-2.006;2023-06-14T01:34:04;9.27;;;5.63;;
66667;SDS011;57205;51.438;-2.006;2023-06-14T01:36:30;7.38;;;5.65;;
66667;SDS011;57205;51.438;-2.006;2023-06-14T01:38:56;12.15;;;6.05;;
66667;SDS011;57205;51.438;-2.006;2023-06-14T01:41:24;10.00;;;5.88;;
66667;SDS011;57205;51.438;-2.006;2023-06-14T01:43:51;9.48;;;5.82;;
66667;SDS011;57205;51.438;-2.006;2023-06-14T01:46:17;9.70;;;5.18;;
66667;SDS011;57205;51.438;-2.006;2023-06-14T01:48:45;7.82;;;5.30;;
66667;SDS011;57205;51.438;-2.006;2023-06-14T01:51:10;9.25;;;6.00;;
66667;SDS011;57205;51.438;-2.006;2023-06-14T01:53:36;9.70;;;5.47;;
66667;SDS011;57205;51.438;-2.006;2023-06-14T01:56:01;6.72;;;5.03;;
66667;SDS011;57205;51.438;-2.006;2023-06-14T01:58:27;8.07;;;5.88;;
66667;SDS011;57205;51.438;-2.006;2023-06-14T02:00:53;8.20;;;5.93;;
66667;SDS011;57205;51.438;-2.006;2023-06-14T02:03:20;9.15;;;6.05;;
66667;SDS011;57205;51.438;-2.006;2023-06-14T02:05:46;10.18;;;5.80;;
66667;SDS011;57205;51.438;-2.006;2023-06-14T02:08:11;9.98;;;5.95;;
66667;SDS011;57205;51.438;-2.006;2023-06-14T02:10:37;9.55;;;5.75;;
66667;SDS011;57205;51.438;-2.006;2023-06-14T02:13:02;8.18;;;5.72;;
66667;SDS011;57205;51.438;-2.006;2023-06-14T02:15:28;10.02;;;6.05;;
66667;SDS011;57205;51.438;-2.006;2023-06-14T02:17:58;7.68;;;5.53;;
66667;SDS011;57205;51.438;-2.006;2023-06-14T02:20:28;8.18;;;5.18;;
66667;SDS011;57205;51.438;-2.006;2023-06-14T02:22:54;7.63;;;5.55;;
66667;SDS011;57205;51.438;-2.006;2023-06-14T02:25:20;8.38;;;6.03;;
66667;SDS011;57205;51.438;-2.006;2023-06-14T02:27:45;7.65;;;5.38;;
66667;SDS011;57205;51.438;-2.006;2023-06-14T02:30:11;10.45;;;5.25;;
66667;SDS011;57205;51.438;-2.006;2023-06-14T02:32:37;9.90;;;5.22;;
66667;SDS011;57205;51.438;-2.006;2023-06-14T02:35:03;7.60;;;4.68;;
66667;SDS011;57205;51.438;-2.006;2023-06-14T02:37:29;8.25;;;5.30;;
66667;SDS011;57205;51.438;-2.006;2023-06-14T02:39:55;8.20;;;4.82;;
66667;SDS011;57205;51.438;-2.006;2023-06-14T02:42:21;9.48;;;4.88;;
66667;SDS011;57205;51.438;-2.006;2023-06-14T02:44:47;10.07;;;4.93;;
66667;SDS011;57205;51.438;-2.006;2023-06-14T02:47:16;7.10;;;4.78;;
66667;SDS011;57205;51.438;-2.006;2023-06-14T02:49:42;8.75;;;5.22;;
66667;SDS011;57205;51.438;-2.006;2023-06-14T02:52:08;8.02;;;4.88;;
66667;SDS011;57205;51.438;-2.006;2023-06-14T02:54:34;6.45;;;4.30;;
66667;SDS011;57205;51.438;-2.006;2023-06-14T02:56:59;8.70;;;4.03;;
66667;SDS011;57205;51.438;-2.006;2023-06-14T02:59:25;9.98;;;4.28;;
66667;SDS011;57205;51.438;-2.006;2023-06-14T03:01:51;8.27;;;4.10;;
66667;SDS011;57205;51.438;-2.006;2023-06-14T03:04:16;8.95;;;4.15;;
66667;SDS011;57205;51.438;-2.006;2023-06-14T03:06:42;7.63;;;3.90;;
66667;SDS011;57205;51.438;-2.006;2023-06-14T03:09:09;6.97;;;3.60;;
66667;SDS011;57205;51.438;-2.006;2023-06-14T03:11:36;7.80;;;3.30;;
66667;SDS011;57205;51.438;-2.006;2023-06-14T03:14:02;7.15;;;3.40;;
66667;SDS011;57205;51.438;-2.006;2023-06-14T03:16:31;9.23;;;3.90;;
66667;SDS011;57205;51.438;-2.006;2023-06-14T03:18:57;7.13;;;3.38;;
66667;SDS011;57205;51.438;-2.006;2023-06-14T03:21:22;8.05;;;3.05;;
66667;SDS011;57205;51.438;-2.006;2023-06-14T03:23:48;5.30;;;3.13;;
66667;SDS011;57205;51.438;-2.006;2023-06-14T03:26:14;10.15;;;3.00;;
66667;SDS011;57205;51.438;-2.006;2023-06-14T03:28:43;7.55;;;3.05;;
66667;SDS011;57205;51.438;-2.006;2023-06-14T03:31:09;6.32;;;3.00;;
66667;SDS011;57205;51.438;-2.006;2023-06-14T03:33:35;6.30;;;3.28;;
66667;SDS011;57205;51.438;-2.006;2023-06-14T03:36:01;9.38;;;5.82;;
66667;SDS011;57205;51.438;-2.006;2023-06-14T03:38:28;7.45;;;3.83;;
66667;SDS011;57205;51.438;-2.006;2023-06-14T03:40:53;6.03;;;2.95;;
66667;SDS011;57205;51.438;-2.006;2023-06-14T03:43:18;5.15;;;2.92;;
66667;SDS011;57205;51.438;-2.006;2023-06-14T03:45:44;9.95;;;3.47;;
66667;SDS011;57205;51.438;-2.006;2023-06-14T03:48:09;6.82;;;2.60;;
66667;SDS011;57205;51.438;-2.006;2023-06-14T03:50:35;8.32;;;3.03;;
66667;SDS011;57205;51.438;-2.006;2023-06-14T03:53:03;9.63;;;2.88;;
66667;SDS011;57205;51.438;-2.006;2023-06-14T03:55:31;8.60;;;3.40;;
66667;SDS011;57205;51.438;-2.006;2023-06-14T03:57:58;9.98;;;3.20;;
66667;SDS011;57205;51.438;-2.006;2023-06-14T04:00:23;9.77;;;3.40;;
66667;SDS011;57205;51.438;-2.006;2023-06-14T04:02:49;5.82;;;3.28;;
66667;SDS011;57205;51.438;-2.006;2023-06-14T04:05:14;7.85;;;3.08;;
66667;SDS011;57205;51.438;-2.006;2023-06-14T04:07:41;7.85;;;3.15;;
66667;SDS011;57205;51.438;-2.006;2023-06-14T04:10:10;4.65;;;2.75;;
66667;SDS011;57205;51.438;-2.006;2023-06-14T04:12:40;7.55;;;3.50;;
66667;SDS011;57205;51.438;-2.006;2023-06-14T04:15:05;7.78;;;2.80;;
66667;SDS011;57205;51.438;-2.006;2023-06-14T04:17:33;8.48;;;3.38;;
66667;SDS011;57205;51.438;-2.006;2023-06-14T04:19:59;12.43;;;3.58;;
66667;SDS011;57205;51.438;-2.006;2023-06-14T04:22:25;8.48;;;3.10;;
66667;SDS011;57205;51.438;-2.006;2023-06-14T04:24:55;6.80;;;3.30;;
66667;SDS011;57205;51.438;-2.006;2023-06-14T04:27:22;9.30;;;3.80;;
66667;SDS011;57205;51.438;-2.006;2023-06-14T04:29:50;7.55;;;3.35;;
66667;SDS011;57205;51.438;-2.006;2023-06-14T04:32:25;8.85;;;3.22;;
66667;SDS011;57205;51.438;-2.006;2023-06-14T04:35:00;8.52;;;3.42;;
66667;SDS011;57205;51.438;-2.006;2023-06-14T04:37:28;5.97;;;3.05;;
66667;SDS011;57205;51.438;-2.006;2023-06-14T04:39:55;11.32;;;3.97;;
66667;SDS011;57205;51.438;-2.006;2023-06-14T04:42:21;6.90;;;3.63;;
66667;SDS011;57205;51.438;-2.006;2023-06-14T04:44:50;6.75;;;3.55;;
66667;SDS011;57205;51.438;-2.006;2023-06-14T04:47:16;9.80;;;3.75;;
66667;SDS011;57205;51.438;-2.006;2023-06-14T04:49:42;8.65;;;4.75;;
66667;SDS011;57205;51.438;-2.006;2023-06-14T04:52:07;9.18;;;3.72;;
66667;SDS011;57205;51.438;-2.006;2023-06-14T04:54:35;10.30;;;4.30;;
66667;SDS011;57205;51.438;-2.006;2023-06-14T04:57:02;10.48;;;3.53;;
66667;SDS011;57205;51.438;-2.006;2023-06-14T04:59:31;7.38;;;4.40;;
66667;SDS011;57205;51.438;-2.006;2023-06-14T05:01:58;7.55;;;3.80;;
66667;SDS011;57205;51.438;-2.006;2023-06-14T05:04:25;17.42;;;3.50;;
66667;SDS011;57205;51.438;-2.006;2023-06-14T05:06:51;6.85;;;3.50;;
66667;SDS011;57205;51.438;-2.006;2023-06-14T05:09:19;9.50;;;3.58;;
66667;SDS011;57205;51.438;-2.006;2023-06-14T05:11:45;7.95;;;3.47;;
66667;SDS011;57205;51.438;-2.006;2023-06-14T05:14:13;8.52;;;3.70;;
66667;SDS011;57205;51.438;-2.006;2023-06-14T05:16:39;10.15;;;3.42;;
66667;SDS011;57205;51.438;-2.006;2023-06-14T05:19:05;9.35;;;3.10;;
66667;SDS011;57205;51.438;-2.006;2023-06-14T05:21:32;6.40;;;3.38;;
66667;SDS011;57205;51.438;-2.006;2023-06-14T05:23:59;8.18;;;3.33;;
66667;SDS011;57205;51.438;-2.006;2023-06-14T05:26:27;8.38;;;3.53;;
66667;SDS011;57205;51.438;-2.006;2023-06-14T05:28:58;6.20;;;2.78;;
66667;SDS011;57205;51.438;-2.006;2023-06-14T05:31:25;7.30;;;3.15;;
66667;SDS011;57205;51.438;-2.006;2023-06-14T05:33:52;8.07;;;3.38;;
66667;SDS011;57205;51.438;-2.006;2023-06-14T05:36:18;9.70;;;3.40;;
66667;SDS011;57205;51.438;-2.006;2023-06-14T05:38:45;6.43;;;3.00;;
66667;SDS011;57205;51.438;-2.006;2023-06-14T05:41:10;7.65;;;3.03;;
66667;SDS011;57205;51.438;-2.006;2023-06-14T05:43:36;8.68;;;3.30;;
66667;SDS011;57205;51.438;-2.006;2023-06-14T05:46:01;8.07;;;3.22;;
66667;SDS011;57205;51.438;-2.006;2023-06-14T05:48:28;7.93;;;3.75;;
66667;SDS011;57205;51.438;-2.006;2023-06-14T05:50:55;7.50;;;2.97;;
66667;SDS011;57205;51.438;-2.006;2023-06-14T05:53:20;6.57;;;3.33;;
66667;SDS011;57205;51.438;-2.006;2023-06-14T05:55:46;9.70;;;3.70;;
66667;SDS011;57205;51.438;-2.006;2023-06-14T05:58:11;6.80;;;2.75;;
66667;SDS011;57205;51.438;-2.006;2023-06-14T06:00:39;9.82;;;4.05;;
66667;SDS011;57205;51.438;-2.006;2023-06-14T06:03:05;11.77;;;3.85;;
66667;SDS011;57205;51.438;-2.006;2023-06-14T06:05:33;6.80;;;3.03;;
66667;SDS011;57205;51.438;-2.006;2023-06-14T06:07:58;5.97;;;2.85;;
66667;SDS011;57205;51.438;-2.006;2023-06-14T06:10:25;7.75;;;3.65;;
66667;SDS011;57205;51.438;-2.006;2023-06-14T06:12:50;9.75;;;3.15;;
66667;SDS011;57205;51.438;-2.006;2023-06-14T06:15:19;10.95;;;3.15;;
66667;SDS011;57205;51.438;-2.006;2023-06-14T06:17:45;7.78;;;2.90;;
66667;SDS011;57205;51.438;-2.006;2023-06-14T06:20:11;11.05;;;3.10;;
66667;SDS011;57205;51.438;-2.006;2023-06-14T06:22:37;4.93;;;2.10;;
66667;SDS011;57205;51.438;-2.006;2023-06-14T06:25:04;7.38;;;3.30;;
66667;SDS011;57205;51.438;-2.006;2023-06-14T06:27:31;7.53;;;2.78;;
66667;SDS011;57205;51.438;-2.006;2023-06-14T06:29:57;7.90;;;3.22;;
66667;SDS011;57205;51.438;-2.006;2023-06-14T06:32:22;6.18;;;2.53;;
66667;SDS011;57205;51.438;-2.006;2023-06-14T06:34:47;12.73;;;3.13;;
66667;SDS011;57205;51.438;-2.006;2023-06-14T06:37:13;7.20;;;3.15;;
66667;SDS011;57205;51.438;-2.006;2023-06-14T06:39:39;7.35;;;3.65;;
66667;SDS011;57205;51.438;-2.006;2023-06-14T06:42:04;5.45;;;3.35;;
66667;SDS011;57205;51.438;-2.006;2023-06-14T06:44:30;9.77;;;3.53;;
66667;SDS011;57205;51.438;-2.006;2023-06-14T06:46:56;11.07;;;4.75;;
66667;SDS011;57205;51.438;-2.006;2023-06-14T06:49:23;6.57;;;3.05;;
66667;SDS011;57205;51.438;-2.006;2023-06-14T06:52:05;8.70;;;2.92;;
66667;SDS011;57205;51.438;-2.006;2023-06-14T06:54:32;7.05;;;3.47;;
66667;SDS011;57205;51.438;-2.006;2023-06-14T06:56:58;9.77;;;3.25;;
66667;SDS011;57205;51.438;-2.006;2023-06-14T06:59:24;10.38;;;5.47;;
66667;SDS011;57205;51.438;-2.006;2023-06-14T07:01:49;8.93;;;4.05;;
66667;SDS011;57205;51.438;-2.006;2023-06-14T07:04:15;7.50;;;2.92;;
66667;SDS011;57205;51.438;-2.006;2023-06-14T07:06:41;10.13;;;3.85;;
66667;SDS011;57205;51.438;-2.006;2023-06-14T07:09:09;7.00;;;3.30;;
66667;SDS011;57205;51.438;-2.006;2023-06-14T07:11:39;6.75;;;3.70;;
66667;SDS011;57205;51.438;-2.006;2023-06-14T07:14:05;11.45;;;3.92;;
66667;SDS011;57205;51.438;-2.006;2023-06-14T07:16:30;10.07;;;3.25;;
66667;SDS011;57205;51.438;-2.006;2023-06-14T07:18:56;8.65;;;3.17;;
66667;SDS011;57205;51.438;-2.006;2023-06-14T07:21:22;6.05;;;2.92;;
66667;SDS011;57205;51.438;-2.006;2023-06-14T07:23:47;6.82;;;3.25;;
66667;SDS011;57205;51.438;-2.006;2023-06-14T07:26:13;7.93;;;3.55;;
66667;SDS011;57205;51.438;-2.006;2023-06-14T07:28:40;9.48;;;3.17;;
66667;SDS011;57205;51.438;-2.006;2023-06-14T07:31:05;8.10;;;3.05;;
66667;SDS011;57205;51.438;-2.006;2023-06-14T07:33:31;9.40;;;3.17;;
66667;SDS011;57205;51.438;-2.006;2023-06-14T07:35:59;7.20;;;2.92;;
66667;SDS011;57205;51.438;-2.006;2023-06-14T07:38:24;6.47;;;2.80;;
66667;SDS011;57205;51.438;-2.006;2023-06-14T07:40:49;8.38;;;3.25;;
66667;SDS011;57205;51.438;-2.006;2023-06-14T07:43:15;7.70;;;3.00;;
66667;SDS011;57205;51.438;-2.006;2023-06-14T07:45:40;9.32;;;3.83;;
66667;SDS011;57205;51.438;-2.006;2023-06-14T07:48:06;8.30;;;3.30;;
66667;SDS011;57205;51.438;-2.006;2023-06-14T07:50:31;9.80;;;3.05;;
66667;SDS011;57205;51.438;-2.006;2023-06-14T07:52:57;5.80;;;2.78;;
66667;SDS011;57205;51.438;-2.006;2023-06-14T07:55:23;6.28;;;2.65;;
66667;SDS011;57205;51.438;-2.006;2023-06-14T07:57:50;6.93;;;3.13;;
66667;SDS011;57205;51.438;-2.006;2023-06-14T08:00:16;11.73;;;3.30;;
66667;SDS011;57205;51.438;-2.006;2023-06-14T08:02:43;7.28;;;3.05;;
66667;SDS011;57205;51.438;-2.006;2023-06-14T08:05:09;7.82;;;3.25;;
66667;SDS011;57205;51.438;-2.006;2023-06-14T08:07:39;7.40;;;3.15;;
66667;SDS011;57205;51.438;-2.006;2023-06-14T08:10:05;10.88;;;3.63;;
66667;SDS011;57205;51.438;-2.006;2023-06-14T08:12:32;8.70;;;2.78;;
66667;SDS011;57205;51.438;-2.006;2023-06-14T08:14:58;4.97;;;2.58;;
66667;SDS011;57205;51.438;-2.006;2023-06-14T08:17:24;8.52;;;3.22;;
66667;SDS011;57205;51.438;-2.006;2023-06-14T08:19:49;6.20;;;2.58;;
66667;SDS011;57205;51.438;-2.006;2023-06-14T08:22:15;9.15;;;2.55;;
66667;SDS011;57205;51.438;-2.006;2023-06-14T08:24:41;9.10;;;2.92;;
66667;SDS011;57205;51.438;-2.006;2023-06-14T08:27:07;5.88;;;2.50;;
66667;SDS011;57205;51.438;-2.006;2023-06-14T08:29:32;10.05;;;3.22;;
66667;SDS011;57205;51.438;-2.006;2023-06-14T08:31:58;7.68;;;2.67;;
66667;SDS011;57205;51.438;-2.006;2023-06-14T08:34:24;5.90;;;2.45;;
66667;SDS011;57205;51.438;-2.006;2023-06-14T08:36:52;5.53;;;2.63;;
66667;SDS011;57205;51.438;-2.006;2023-06-14T08:39:17;13.75;;;9.20;;
66667;SDS011;57205;51.438;-2.006;2023-06-14T08:41:45;8.68;;;3.05;;
66667;SDS011;57205;51.438;-2.006;2023-06-14T08:44:12;7.60;;;2.83;;
66667;SDS011;57205;51.438;-2.006;2023-06-14T08:46:37;8.90;;;3.00;;
66667;SDS011;57205;51.438;-2.006;2023-06-14T08:49:04;9.75;;;2.90;;
66667;SDS011;57205;51.438;-2.006;2023-06-14T08:51:30;8.15;;;2.90;;
66667;SDS011;57205;51.438;-2.006;2023-06-14T08:54:01;5.35;;;2.70;;
66667;SDS011;57205;51.438;-2.006;2023-06-14T08:56:30;6.28;;;3.10;;
66667;SDS011;57205;51.438;-2.006;2023-06-14T08:58:57;14.63;;;3.17;;
66667;SDS011;57205;51.438;-2.006;2023-06-14T09:01:27;6.50;;;2.83;;
66667;SDS011;57205;51.438;-2.006;2023-06-14T09:03:53;6.93;;;3.28;;
66667;SDS011;57205;51.438;-2.006;2023-06-14T09:06:22;8.07;;;3.20;;
66667;SDS011;57205;51.438;-2.006;2023-06-14T09:08:49;10.13;;;2.85;;
66667;SDS011;57205;51.438;-2.006;2023-06-14T09:11:17;9.75;;;3.47;;
66667;SDS011;57205;51.438;-2.006;2023-06-14T09:13:44;6.65;;;2.83;;
66667;SDS011;57205;51.438;-2.006;2023-06-14T09:16:11;4.47;;;2.70;;
66667;SDS011;57205;51.438;-2.006;2023-06-14T09:18:44;5.82;;;2.95;;
66667;SDS011;57205;51.438;-2.006;2023-06-14T09:21:15;10.38;;;2.78;;
66667;SDS011;57205;51.438;-2.006;2023-06-14T09:23:45;7.22;;;2.58;;
66667;SDS011;57205;51.438;-2.006;2023-06-14T09:26:16;8.25;;;2.88;;
66667;SDS011;57205;51.438;-2.006;2023-06-14T09:28:44;7.50;;;3.25;;
66667;SDS011;57205;51.438;-2.006;2023-06-14T09:31:11;7.78;;;2.78;;
66667;SDS011;57205;51.438;-2.006;2023-06-14T09:33:38;5.53;;;3.13;;
66667;SDS011;57205;51.438;-2.006;2023-06-14T09:36:11;6.55;;;2.95;;
66667;SDS011;57205;51.438;-2.006;2023-06-14T09:38:39;8.05;;;2.42;;
66667;SDS011;57205;51.438;-2.006;2023-06-14T09:41:05;11.43;;;3.08;;
66667;SDS011;57205;51.438;-2.006;2023-06-14T09:43:31;6.93;;;2.70;;
66667;SDS011;57205;51.438;-2.006;2023-06-14T09:45:59;4.80;;;2.65;;
66667;SDS011;57205;51.438;-2.006;2023-06-14T09:48:25;7.00;;;2.55;;
66667;SDS011;57205;51.438;-2.006;2023-06-14T09:50:52;7.18;;;2.63;;
66667;SDS011;57205;51.438;-2.006;2023-06-14T09:53:21;6.60;;;2.72;;
66667;SDS011;57205;51.438;-2.006;2023-06-14T09:55:48;16.60;;;3.08;;
66667;SDS011;57205;51.438;-2.006;2023-06-14T09:58:15;6.82;;;2.22;;
66667;SDS011;57205;51.438;-2.006;2023-06-14T10:00:45;7.45;;;3.85;;
66667;SDS011;57205;51.438;-2.006;2023-06-14T10:03:13;7.13;;;2.55;;
66667;SDS011;57205;51.438;-2.006;2023-06-14T10:05:43;7.22;;;2.60;;
66667;SDS011;57205;51.438;-2.006;2023-06-14T10:08:13;5.18;;;2.25;;
66667;SDS011;57205;51.438;-2.006;2023-06-14T10:10:43;7.93;;;2.95;;
66667;SDS011;57205;51.438;-2.006;2023-06-14T10:13:09;7.43;;;2.60;;
66667;SDS011;57205;51.438;-2.006;2023-06-14T10:16:39;4.32;;;2.38;;
66667;SDS011;57205;51.438;-2.006;2023-06-14T10:21:23;5.40;;;2.47;;
66667;SDS011;57205;51.438;-2.006;2023-06-14T10:23:58;5.47;;;2.97;;
66667;SDS011;57205;51.438;-2.006;2023-06-14T10:26:28;5.95;;;2.63;;
66667;SDS011;57205;51.438;-2.006;2023-06-14T10:29:01;7.15;;;2.40;;
66667;SDS011;57205;51.438;-2.006;2023-06-14T10:34:22;4.20;;;2.50;;
66667;SDS011;57205;51.438;-2.006;2023-06-14T10:36:50;4.78;;;2.20;;
66667;SDS011;57205;51.438;-2.006;2023-06-14T10:39:28;7.07;;;2.55;;
66667;SDS011;57205;51.438;-2.006;2023-06-14T10:41:54;6.05;;;2.65;;
66667;SDS011;57205;51.438;-2.006;2023-06-14T10:46:46;4.78;;;2.70;;
66667;SDS011;57205;51.438;-2.006;2023-06-14T10:49:15;8.13;;;3.33;;
66667;SDS011;57205;51.438;-2.006;2023-06-14T10:51:44;6.53;;;2.60;;
66667;SDS011;57205;51.438;-2.006;2023-06-14T10:54:14;6.88;;;2.35;;
66667;SDS011;57205;51.438;-2.006;2023-06-14T10:56:47;9.05;;;2.65;;
66667;SDS011;57205;51.438;-2.006;2023-06-14T10:59:13;8.25;;;2.97;;
66667;SDS011;57205;51.438;-2.006;2023-06-14T11:04:47;3.67;;;2.42;;
66667;SDS011;57205;51.438;-2.006;2023-06-14T11:12:14;9.68;;;2.72;;
66667;SDS011;57205;51.438;-2.006;2023-06-14T11:14:40;10.68;;;2.88;;
66667;SDS011;57205;51.438;-2.006;2023-06-14T11:17:06;6.53;;;2.72;;
66667;SDS011;57205;51.438;-2.006;2023-06-14T11:19:31;6.15;;;3.10;;
66667;SDS011;57205;51.438;-2.006;2023-06-14T11:21:57;4.20;;;2.63;;
66667;SDS011;57205;51.438;-2.006;2023-06-14T11:24:22;8.95;;;3.20;;
66667;SDS011;57205;51.438;-2.006;2023-06-14T11:26:49;7.70;;;3.25;;
66667;SDS011;57205;51.438;-2.006;2023-06-14T11:29:15;10.75;;;3.22;;
66667;SDS011;57205;51.438;-2.006;2023-06-14T11:31:45;6.15;;;3.20;;
66667;SDS011;57205;51.438;-2.006;2023-06-14T11:34:10;5.43;;;2.95;;
66667;SDS011;57205;51.438;-2.006;2023-06-14T11:36:37;6.32;;;3.17;;
66667;SDS011;57205;51.438;-2.006;2023-06-14T11:39:07;8.88;;;3.50;;
66667;SDS011;57205;51.438;-2.006;2023-06-14T11:41:37;10.30;;;3.13;;
66667;SDS011;57205;51.438;-2.006;2023-06-14T11:44:04;6.60;;;3.70;;
66667;SDS011;57205;51.438;-2.006;2023-06-14T11:46:31;15.77;;;5.13;;
66667;SDS011;57205;51.438;-2.006;2023-06-14T11:48:56;9.52;;;3.13;;
66667;SDS011;57205;51.438;-2.006;2023-06-14T11:51:21;9.23;;;3.33;;
66667;SDS011;57205;51.438;-2.006;2023-06-14T11:53:47;7.65;;;3.47;;
66667;SDS011;57205;51.438;-2.006;2023-06-14T11:56:13;7.00;;;3.80;;
66667;SDS011;57205;51.438;-2.006;2023-06-14T11:58:39;11.43;;;3.80;;
66667;SDS011;57205;51.438;-2.006;2023-06-14T12:01:05;7.35;;;3.33;;
66667;SDS011;57205;51.438;-2.006;2023-06-14T12:03:30;7.72;;;3.60;;
66667;SDS011;57205;51.438;-2.006;2023-06-14T12:06:03;7.85;;;3.25;;
66667;SDS011;57205;51.438;-2.006;2023-06-14T12:08:36;5.68;;;3.38;;
66667;SDS011;57205;51.438;-2.006;2023-06-14T12:11:06;9.80;;;3.92;;
66667;SDS011;57205;51.438;-2.006;2023-06-14T12:13:41;10.38;;;3.90;;
66667;SDS011;57205;51.438;-2.006;2023-06-14T12:16:08;11.48;;;5.38;;
66667;SDS011;57205;51.438;-2.006;2023-06-14T12:18:37;7.75;;;3.88;;
66667;SDS011;57205;51.438;-2.006;2023-06-14T12:21:07;6.05;;;3.28;;
66667;SDS011;57205;51.438;-2.006;2023-06-14T12:23:53;8.20;;;4.15;;
66667;SDS011;57205;51.438;-2.006;2023-06-14T12:26:19;6.43;;;4.13;;
66667;SDS011;57205;51.438;-2.006;2023-06-14T12:28:46;8.43;;;4.22;;
66667;SDS011;57205;51.438;-2.006;2023-06-14T12:31:12;6.60;;;4.07;;
66667;SDS011;57205;51.438;-2.006;2023-06-14T12:33:39;6.88;;;3.92;;
66667;SDS011;57205;51.438;-2.006;2023-06-14T12:36:06;7.65;;;4.25;;
66667;SDS011;57205;51.438;-2.006;2023-06-14T12:38:33;11.18;;;4.82;;
66667;SDS011;57205;51.438;-2.006;2023-06-14T12:40:59;9.85;;;4.20;;
66667;SDS011;57205;51.438;-2.006;2023-06-14T12:43:25;8.77;;;3.90;;
66667;SDS011;57205;51.438;-2.006;2023-06-14T12:45:50;8.90;;;4.45;;
66667;SDS011;57205;51.438;-2.006;2023-06-14T12:48:17;6.40;;;3.95;;
66667;SDS011;57205;51.438;-2.006;2023-06-14T12:50:43;11.07;;;4.25;;
66667;SDS011;57205;51.438;-2.006;2023-06-14T12:53:08;8.60;;;4.13;;
66667;SDS011;57205;51.438;-2.006;2023-06-14T12:55:34;5.88;;;4.05;;
66667;SDS011;57205;51.438;-2.006;2023-06-14T12:57:59;8.50;;;3.85;;
66667;SDS011;57205;51.438;-2.006;2023-06-14T13:00:25;9.45;;;4.22;;
66667;SDS011;57205;51.438;-2.006;2023-06-14T13:02:55;6.60;;;4.28;;
66667;SDS011;57205;51.438;-2.006;2023-06-14T13:05:21;8.90;;;4.68;;
66667;SDS011;57205;51.438;-2.006;2023-06-14T13:07:47;9.07;;;4.47;;
66667;SDS011;57205;51.438;-2.006;2023-06-14T13:10:13;6.68;;;3.65;;
66667;SDS011;57205;51.438;-2.006;2023-06-14T13:12:39;7.10;;;4.03;;
66667;SDS011;57205;51.438;-2.006;2023-06-14T13:15:05;7.90;;;4.38;;
66667;SDS011;57205;51.438;-2.006;2023-06-14T13:17:32;13.63;;;4.80;;
66667;SDS011;57205;51.438;-2.006;2023-06-14T13:19:58;11.30;;;3.95;;
66667;SDS011;57205;51.438;-2.006;2023-06-14T13:22:24;12.85;;;4.38;;
66667;SDS011;57205;51.438;-2.006;2023-06-14T13:24:50;5.75;;;3.90;;
66667;SDS011;57205;51.438;-2.006;2023-06-14T13:27:15;11.27;;;4.20;;
66667;SDS011;57205;51.438;-2.006;2023-06-14T13:29:41;7.90;;;4.03;;
66667;SDS011;57205;51.438;-2.006;2023-06-14T13:32:06;6.50;;;4.32;;
66667;SDS011;57205;51.438;-2.006;2023-06-14T13:34:32;7.32;;;4.43;;
66667;SDS011;57205;51.438;-2.006;2023-06-14T13:36:58;8.18;;;4.50;;
66667;SDS011;57205;51.438;-2.006;2023-06-14T13:39:26;12.02;;;4.68;;
66667;SDS011;57205;51.438;-2.006;2023-06-14T13:41:51;8.18;;;4.43;;
66667;SDS011;57205;51.438;-2.006;2023-06-14T13:44:17;9.50;;;4.72;;
66667;SDS011;57205;51.438;-2.006;2023-06-14T13:46:46;8.65;;;4.55;;
66667;SDS011;57205;51.438;-2.006;2023-06-14T13:49:12;5.90;;;4.30;;
66667;SDS011;57205;51.438;-2.006;2023-06-14T13:51:37;8.75;;;4.95;;
66667;SDS011;57205;51.438;-2.006;2023-06-14T13:54:03;7.20;;;4.43;;
66667;SDS011;57205;51.438;-2.006;2023-06-14T13:56:29;8.50;;;5.35;;
66667;SDS011;57205;51.438;-2.006;2023-06-14T13:58:55;11.07;;;4.70;;
66667;SDS011;57205;51.438;-2.006;2023-06-14T14:01:21;8.00;;;4.78;;
66667;SDS011;57205;51.438;-2.006;2023-06-14T14:03:47;9.45;;;4.72;;
66667;SDS011;57205;51.438;-2.006;2023-06-14T14:06:14;14.85;;;4.88;;
66667;SDS011;57205;51.438;-2.006;2023-06-14T14:08:40;9.35;;;4.70;;
66667;SDS011;57205;51.438;-2.006;2023-06-14T14:11:06;7.78;;;4.80;;
66667;SDS011;57205;51.438;-2.006;2023-06-14T14:13:32;8.80;;;4.50;;
66667;SDS011;57205;51.438;-2.006;2023-06-14T14:15:58;9.63;;;4.78;;
66667;SDS011;57205;51.438;-2.006;2023-06-14T14:18:24;8.27;;;3.88;;
66667;SDS011;57205;51.438;-2.006;2023-06-14T14:20:50;7.15;;;4.28;;
66667;SDS011;57205;51.438;-2.006;2023-06-14T14:23:16;12.45;;;4.88;;
66667;SDS011;57205;51.438;-2.006;2023-06-14T14:25:41;6.45;;;4.18;;
66667;SDS011;57205;51.438;-2.006;2023-06-14T14:28:07;8.18;;;4.68;;
66667;SDS011;57205;51.438;-2.006;2023-06-14T14:30:32;6.70;;;4.57;;
66667;SDS011;57205;51.438;-2.006;2023-06-14T14:32:58;12.07;;;5.35;;
66667;SDS011;57205;51.438;-2.006;2023-06-14T14:35:24;8.48;;;4.70;;
66667;SDS011;57205;51.438;-2.006;2023-06-14T14:37:55;9.68;;;4.53;;
66667;SDS011;57205;51.438;-2.006;2023-06-14T14:40:21;11.10;;;4.47;;
66667;SDS011;57205;51.438;-2.006;2023-06-14T14:42:46;7.05;;;4.22;;
66667;SDS011;57205;51.438;-2.006;2023-06-14T14:45:11;8.00;;;4.22;;
66667;SDS011;57205;51.438;-2.006;2023-06-14T14:47:37;12.10;;;5.18;;
66667;SDS011;57205;51.438;-2.006;2023-06-14T14:50:02;9.95;;;5.03;;
66667;SDS011;57205;51.438;-2.006;2023-06-14T14:52:28;7.63;;;5.30;;